Terminal Aerodrome Forecast
Issued by NWS

Home | Current Version | Previous Version | Text Only | Print | Product List | Glossary On
Versions: 1 2 3 4 5 6 7 8 9 10 11 12 13 14 15 16 17 18 19 20 21 22 23 24 25 26 27 28 29 30
000
FTUS44 KLZK 190500
TAFHRO
TAF
KHRO 190537Z 1906/2006 13006KT 5SM BR SCT005 OVC020
      TEMPO 1906/1909 2SM BR OVC005
     FM190900 12003KT 1SM BR OVC005
     FM191500 13005KT 5SM BR SCT007 BKN020
     FM191800 13006KT P6SM BKN030
     FM192100 13007KT P6SM SCT035
     FM200000 12006KT P6SM SCT250=

USA.gov is the U.S. government's official web portal to all federal, state and local government web resources and services.